Terminal Aerodrome Forecast
Issued by NWS

Home | Current Version | Previous Version | Text Only | Print | Product List | Glossary On
Versions: 1 2 3 4 5 6 7 8 9 10 11 12 13 14 15 16 17 18 19 20 21 22 23 24 25
000
FTUS45 KSLC 092220 AAB
TAFPVU
TAF AMD
KPVU 092220Z 0922/1018 16008KT P6SM -SHRA VCTS SCT070CB BKN100
      TEMPO 0922/0924 VRB20G35KT 5SM TSRA BKN070CB
     FM100300 VRB05KT P6SM VCSH BKN070 BKN100
      AMD LTD TO CLD VIS AND WIND=

USA.gov is the U.S. government's official web portal to all federal, state and local government web resources and services.